To NAV CANADA Home Page Login to a new session Search on AWWS site Feedback and Comments Disclaimer Vers la page française équivalente Tips FAQ What's new on the site To the Forecasts and Observations / NOTAM section To "File a Flight Plan" website Publications and other links Update of the User's profile FIC Telephone Numbers My Weather Data Folder Route Weather Data Regional Weather Data Local Weather Data To the Forecasts and Observations / NOTAM section
Request Generated 07/31/2016 at 03:32:39 UTC . Weather information available at that time is displayed.

METAR/TAF

TORONTO/BILLY BISHOP TORONTO CITY AIRPORT/ON    (show WxCam)

METAR CYTZ 310300Z AUTO 06011KT 9SM FEW075 OVC110 22/17 A3003 RMK
SLP169 DENSITY ALT 900FT=
METAR CYTZ 310200Z AUTO 06011KT 9SM OVC100 22/16 A3003 RMK SLP169
DENSITY ALT 1000FT=
METAR CYTZ 310100Z AUTO 06011KT 9SM FEW085 22/15 A3000 RMK SLP161
DENSITY ALT 1000FT=

TAF CYTZ 310138Z 3102/0102 06010KT P6SM FEW080
FM311200 05010G20KT P6SM BKN070
FM311700 08010G20KT P6SM BKN050 PROB30 3117/3124 VRB15G25KT 1SM
TSRA BR BKN010 OVC030CB
RMK FCST BASED ON AUTO OBS. NXT FCST BY 310800Z=
Your time UTC time
Weather data provided by Environment Canada and NAV CANADA